メインページ
METAR-TAF:

METAR-TAF

空港 :

レシフェ, ペルナンブーコ州, ブラジル

レシフェ/グアララペス・ジルベルト・フレイレ国際空港

緯度: 08-08S, 経度: 034-55W, 海抜: 19m

現時点の気象観測

当レポートは18分前の02:00(UTC)に作成
南東の風 9kt
気温 27°C
湿度 89%
気圧 1014 hPa
視程10km以上
高度1900ftの雲は散在している

METAR: SBRF 010200Z 14009KT 9999 SCT019 27/25 Q1014

時間: 23:18 (02:18 UTC)

予報

当レポートは5時間18分前の21:00(UTC)に作成
予報は01日の 00時(UTC)から 01日の 24時(UTC)まで有効
南東の風 8kt
視程: 8000m
高度2000ftの雲は散在している

TAF: SBRF 302100Z 0100/0124 13008KT 8000 SCT020 TN26/0108Z TX30/0115Z RMK PEA

4,000以上の空港の気象観測と天気予報(METAR報とTAF報)

利用可能な観測所は地図上に黄色い丸と赤い丸で示す。

丸の上にカーソルを重ねると観測所名を参照できる。

次にクリックすると気象観測と天気予報を参照できる。

マップの切り替え:黒色「×」印の緑ボタンをクリックして拡大、「-」印の緑ボタンをクリックして縮小、緑色の三角印をクリックして隣りの地図に切り替え


METAR-TAF: